Terminal Aerodrome Forecast
Issued by NWS Wilmington, NC

Home | Current Version | Previous Version | Text Only | Print | Product List | Glossary On
Versions: 1 2 3 4 5 6 7 8 9 10 11 12 13 14 15 16 17
000
FTUS42 KILM 302320
TAFLBT
TAF
KLBT 302320Z 3100/3124 15008KT P6SM SCT070
     FM310200 VRB03KT P6SM SCT060
     FM310800 00000KT 4SM BR FEW070
     FM311500 18005KT P6SM SCT040=

USA.gov is the U.S. government's official web portal to all federal, state and local government web resources and services.